createdAt,value
2019-01-15T00:01:13.691Z,-0.95
2019-01-15T00:16:17.262Z,-1.03
2019-01-15T00:31:19.843Z,-1.10
2019-01-15T00:46:22.396Z,-1.12
2019-01-15T01:01:28.607Z,-0.92
2019-01-15T01:16:31.177Z,-1.00
2019-01-15T01:31:34.264Z,-1.12
2019-01-15T01:46:36.849Z,-1.26
2019-01-15T02:01:39.419Z,-1.28
2019-01-15T02:16:43.591Z,-1.42
2019-01-15T02:31:46.165Z,-1.62
2019-01-15T02:46:48.741Z,-1.99
2019-01-15T03:01:51.290Z,-2.20
2019-01-15T03:16:53.864Z,-2.43
2019-01-15T03:31:56.409Z,-2.55
2019-01-15T03:47:00.369Z,-2.77
2019-01-15T04:02:04.271Z,-2.95
2019-01-15T04:17:09.379Z,-3.07
2019-01-15T04:32:12.948Z,-2.91
2019-01-15T04:47:15.496Z,-2.81
2019-01-15T05:02:18.898Z,-2.68
2019-01-15T05:17:21.458Z,-2.76
2019-01-15T05:32:25.356Z,-2.52
2019-01-15T05:47:28.387Z,-2.60
2019-01-15T06:02:31.991Z,-2.76
2019-01-15T06:17:34.545Z,-2.72
2019-01-15T06:32:37.121Z,-2.86
2019-01-15T06:47:39.749Z,-2.48
2019-01-15T07:02:42.412Z,-1.93
2019-01-15T07:17:44.956Z,-1.98
2019-01-15T07:32:47.752Z,-2.04
2019-01-15T07:47:51.232Z,-1.82
2019-01-15T08:02:54.544Z,0.21
2019-01-15T08:17:57.912Z,2.57
2019-01-15T08:33:03.782Z,4.03
2019-01-15T08:48:12.661Z,4.37
2019-01-15T09:03:16.321Z,3.83
2019-01-15T09:18:20.116Z,3.70
2019-01-15T09:33:23.489Z,3.87
2019-01-15T09:48:27.085Z,4.52
2019-01-15T10:03:30.700Z,4.35
2019-01-15T10:18:34.048Z,4.78
2019-01-15T10:33:43.118Z,5.24
2019-01-15T10:48:45.689Z,6.50
2019-01-15T11:03:48.237Z,5.89
2019-01-15T11:18:52.173Z,5.23
2019-01-15T11:33:56.121Z,3.88
2019-01-15T11:49:00.245Z,2.54
2019-01-15T12:04:07.296Z,1.78
2019-01-15T12:19:14.587Z,1.70
2019-01-15T12:49:56.291Z,0.99
2019-01-15T13:05:00.887Z,-0.13
2019-01-15T13:20:12.070Z,-1.60
2019-01-15T13:35:22.282Z,-2.50
2019-01-15T13:50:30.355Z,-3.22
2019-01-15T14:05:37.212Z,-3.41
2019-01-15T14:36:34.809Z,-3.87
2019-01-15T14:51:40.281Z,-4.06
2019-01-15T15:06:53.611Z,-4.27
2019-01-15T15:22:04.184Z,-4.42
2019-01-15T15:37:23.661Z,-4.63
2019-01-15T16:08:06.968Z,-4.84
2019-01-15T16:23:19.772Z,-5.03
2019-01-15T16:38:29.803Z,-5.04
2019-01-15T16:53:38.002Z,-5.18
2019-01-15T17:08:46.302Z,-5.23
2019-01-15T17:24:03.603Z,-5.27
2019-01-15T17:39:14.702Z,-5.23
2019-01-15T17:54:22.815Z,-5.18
2019-01-15T18:25:06.454Z,-5.16
2019-01-15T18:40:16.309Z,-5.11
2019-01-15T18:55:24.297Z,-5.12
2019-01-15T19:26:04.094Z,-5.00
2019-01-15T19:56:47.003Z,-4.78
2019-01-15T20:11:57.357Z,-4.64
2019-01-15T20:42:39.415Z,-4.57
2019-01-15T20:57:44.020Z,-4.37
2019-01-15T21:28:27.569Z,-4.13
2019-01-15T21:43:32.126Z,-3.92
2019-01-15T21:58:40.309Z,-3.70
2019-01-15T22:29:27.560Z,-3.43
2019-01-15T23:00:16.642Z,-3.31
2019-01-15T23:15:22.775Z,-2.91
2019-01-15T23:30:32.219Z,-2.58
2019-01-15T23:45:41.322Z,-2.36
